Language: 


Des rapports , des résumés tant et plus, au choix de chacun....


Données Historiques de Météogheer
Journalier Rapport pour Janvier 31, 2017 Unitée:  Les deux    Impériale   Métrique
Suivant Jour »
Journalier Hebdomadaire Mensuel Annuel Sur mesure
  Max: Min: Moyenne:
Température: 42.3 °F /  5.7 °C 32 °F /  0.0 °C 39.7 °F /  4.3 °C
Point de rosée: 41.7 °F /  5.4 °C 37.6 °F /  3.1 °C 38.7 °F /  3.7 °C
Humidité: 98% 0% 95%
Vent: 10.1mph /  16.3km/h - 5mph /  8km/h
Rafales: 10.5mph /  16.9km/h - -
Vent- - East
Pression: 30 in /  1016.1 hPa 29.9 in /  1013.1 hPa -
Pluie: 0 in /  0.0 mm    
Historical Graphs
 
 
Données tabulaires pour Janvier 31, 2017
Heure Température Point de rosée Pression Vent Vent Rafales Humidité Pluie Taux (Horaire) Conditions
00:02 42.3 °F /  5.7 °C 41.7 °F /  5.4 °C 29.9in /  1013.1hPa ENE 3.6mph /  5.8km/h 4.7mph /  7.6km/h 98% 0in /  0.0mm
00:07 42.3 °F /  5.7 °C 41.7 °F /  5.4 °C 29.9in /  1014.1hPa ENE 3.1mph /  5.0km/h 5.4mph /  8.7km/h 98% 0in /  0.0mm
00:12 42.3 °F /  5.7 °C 41.7 °F /  5.4 °C 29.9in /  1014.1hPa NE 3.1mph /  5.0km/h 5.4mph /  8.7km/h 98% 0in /  0.0mm
00:17 42.1 °F /  5.6 °C 41.5 °F /  5.3 °C 29.9in /  1014.1hPa ENE 4.3mph /  6.9km/h 4.7mph /  7.6km/h 98% 0in /  0.0mm
00:22 42.1 °F /  5.6 °C 41.5 °F /  5.3 °C 29.9in /  1013.1hPa ENE 3.4mph /  5.5km/h 5.8mph /  9.3km/h 98% 0in /  0.0mm
00:27 42.1 °F /  5.6 °C 41.4 °F /  5.2 °C 29.9in /  1013.1hPa ENE 5.4mph /  8.7km/h 5.8mph /  9.3km/h 97% 0in /  0.0mm
00:32 42.1 °F /  5.6 °C 41.4 °F /  5.2 °C 29.9in /  1013.1hPa ENE 6mph /  9.7km/h 6.9mph /  11.1km/h 97% 0in /  0.0mm
00:37 42.1 °F /  5.6 °C 41.4 °F /  5.2 °C 29.9in /  1013.1hPa NE 4.3mph /  6.9km/h 6.9mph /  11.1km/h 97% 0in /  0.0mm
00:42 42.1 °F /  5.6 °C 41.4 °F /  5.2 °C 29.9in /  1013.1hPa East 3.6mph /  5.8km/h 6.5mph /  10.5km/h 97% 0in /  0.0mm
00:47 42.1 °F /  5.6 °C 41.4 °F /  5.2 °C 29.9in /  1013.1hPa ENE 3.6mph /  5.8km/h 6mph /  9.7km/h 97% 0in /  0.0mm
00:52 41.9 °F /  5.5 °C 41.2 °F /  5.1 °C 29.9in /  1014.1hPa ENE 4mph /  6.4km/h 6mph /  9.7km/h 97% 0in /  0.0mm
00:57 41.9 °F /  5.5 °C 41.2 °F /  5.1 °C 29.9in /  1014.1hPa East 4.9mph /  7.9km/h 5.8mph /  9.3km/h 97% 0in /  0.0mm
01:02 41.9 °F /  5.5 °C 41.2 °F /  5.1 °C 29.9in /  1014.1hPa East 4.9mph /  7.9km/h 5.8mph /  9.3km/h 97% 0in /  0.0mm
01:07 41.9 °F /  5.5 °C 41.2 °F /  5.1 °C 29.9in /  1013.1hPa ENE 3.6mph /  5.8km/h 6.5mph /  10.5km/h 97% 0in /  0.0mm
01:12 41.7 °F /  5.4 °C 40.8 °F /  4.9 °C 29.9in /  1013.1hPa ENE 3.1mph /  5.0km/h 6.5mph /  10.5km/h 97% 0in /  0.0mm
01:17 41.7 °F /  5.4 °C 40.8 °F /  4.9 °C 29.9in /  1013.1hPa ENE 3.6mph /  5.8km/h 5.4mph /  8.7km/h 97% 0in /  0.0mm
01:22 41.7 °F /  5.4 °C 40.8 °F /  4.9 °C 29.9in /  1014.1hPa NE 3.6mph /  5.8km/h 4.3mph /  6.9km/h 97% 0in /  0.0mm
01:27 41.5 °F /  5.3 °C 40.6 °F /  4.8 °C 29.9in /  1014.1hPa ENE 3.8mph /  6.1km/h 4.3mph /  6.9km/h 97% 0in /  0.0mm
01:32 41.5 °F /  5.3 °C 40.6 °F /  4.8 °C 29.9in /  1014.1hPa ENE 6.5mph /  10.5km/h 6.5mph /  10.5km/h 97% 0in /  0.0mm
01:37 41.5 °F /  5.3 °C 40.6 °F /  4.8 °C 29.9in /  1013.1hPa East 5.6mph /  9.0km/h 6.9mph /  11.1km/h 97% 0in /  0.0mm
01:42 41.5 °F /  5.3 °C 40.6 °F /  4.8 °C 29.9in /  1013.1hPa ENE 3.8mph /  6.1km/h 6.9mph /  11.1km/h 97% 0in /  0.0mm
01:47 41.5 °F /  5.3 °C 40.6 °F /  4.8 °C 29.9in /  1013.1hPa ENE 5.6mph /  9.0km/h 6.3mph /  10.1km/h 97% 0in /  0.0mm
01:52 41.5 °F /  5.3 °C 40.6 °F /  4.8 °C 29.9in /  1013.1hPa East 2.7mph /  4.3km/h 5.8mph /  9.3km/h 97% 0in /  0.0mm
01:57 41.5 °F /  5.3 °C 40.6 °F /  4.8 °C 29.9in /  1013.1hPa ENE 4mph /  6.4km/h 5.8mph /  9.3km/h 97% 0in /  0.0mm
02:02 32 °F /  0.0 °C 40.8 °F /  4.9 °C 29.9in /  1013.1hPa NE 4mph /  6.4km/h 4mph /  6.4km/h 0% 0in /  0.0mm
02:07 41.4 °F /  5.2 °C 40.6 °F /  4.8 °C 29.9in /  1014.1hPa ENE 3.4mph /  5.5km/h 4.3mph /  6.9km/h 97% 0in /  0.0mm
02:12 41.4 °F /  5.2 °C 40.6 °F /  4.8 °C 29.9in /  1014.1hPa East 3.1mph /  5.0km/h 4.3mph /  6.9km/h 97% 0in /  0.0mm
02:17 41.4 °F /  5.2 °C 40.6 °F /  4.8 °C 29.9in /  1014.1hPa ENE 4.7mph /  7.6km/h 4.9mph /  7.9km/h 97% 0in /  0.0mm
02:22 41.4 °F /  5.2 °C 40.6 °F /  4.8 °C 29.9in /  1013.1hPa ENE 3.8mph /  6.1km/h 5.4mph /  8.7km/h 97% 0in /  0.0mm
02:27 41.2 °F /  5.1 °C 40.5 °F /  4.7 °C 29.9in /  1013.1hPa ENE 4mph /  6.4km/h 5.6mph /  9.0km/h 97% 0in /  0.0mm
02:32 41.2 °F /  5.1 °C 40.5 °F /  4.7 °C 29.9in /  1013.1hPa ENE 3.8mph /  6.1km/h 6mph /  9.7km/h 97% 0in /  0.0mm
02:37 41.2 °F /  5.1 °C 40.5 °F /  4.7 °C 29.9in /  1013.1hPa East 4.7mph /  7.6km/h 6mph /  9.7km/h 97% 0in /  0.0mm
02:42 41 °F /  5.0 °C 40.3 °F /  4.6 °C 29.9in /  1013.1hPa ENE 4.9mph /  7.9km/h 6mph /  9.7km/h 97% 0in /  0.0mm
02:47 41.2 °F /  5.1 °C 40.5 °F /  4.7 °C 29.9in /  1013.1hPa NE 6mph /  9.7km/h 6.5mph /  10.5km/h 97% 0in /  0.0mm
02:52 41 °F /  5.0 °C 40.3 °F /  4.6 °C 29.9in /  1013.1hPa ENE 3.6mph /  5.8km/h 6.5mph /  10.5km/h 97% 0in /  0.0mm
02:57 41 °F /  5.0 °C 40.3 °F /  4.6 °C 29.9in /  1013.1hPa East 3.8mph /  6.1km/h 6.5mph /  10.5km/h 97% 0in /  0.0mm
03:10 40.8 °F /  4.9 °C 39.7 °F /  4.3 °C 29.9in /  1013.1hPa ENE 6mph /  9.7km/h 6.5mph /  10.5km/h 96% 0in /  0.0mm
03:15 40.8 °F /  4.9 °C 39.7 °F /  4.3 °C 29.9in /  1013.1hPa ENE 4.9mph /  7.9km/h 6.5mph /  10.5km/h 96% 0in /  0.0mm
03:20 40.8 °F /  4.9 °C 39.7 °F /  4.3 °C 29.9in /  1013.1hPa ENE 5.6mph /  9.0km/h 7.4mph /  11.9km/h 96% 0in /  0.0mm
03:25 40.8 °F /  4.9 °C 39.7 °F /  4.3 °C 29.9in /  1013.1hPa East 4.3mph /  6.9km/h 7.4mph /  11.9km/h 96% 0in /  0.0mm
03:30 40.8 °F /  4.9 °C 39.7 °F /  4.3 °C 29.9in /  1013.1hPa East 6mph /  9.7km/h 7.8mph /  12.6km/h 96% 0in /  0.0mm
03:35 40.8 °F /  4.9 °C 39.7 °F /  4.3 °C 29.9in /  1013.1hPa East 4mph /  6.4km/h 7.8mph /  12.6km/h 96% 0in /  0.0mm
03:40 40.8 °F /  4.9 °C 39.7 °F /  4.3 °C 29.9in /  1013.1hPa ENE 6mph /  9.7km/h 6.3mph /  10.1km/h 96% 0in /  0.0mm
03:45 40.8 °F /  4.9 °C 39.7 °F /  4.3 °C 29.9in /  1013.1hPa NE 3.6mph /  5.8km/h 6mph /  9.7km/h 96% 0in /  0.0mm
03:50 40.8 °F /  4.9 °C 39.7 °F /  4.3 °C 29.9in /  1013.1hPa East 3.8mph /  6.1km/h 6.3mph /  10.1km/h 96% 0in /  0.0mm
03:55 40.6 °F /  4.8 °C 39.6 °F /  4.2 °C 29.9in /  1013.1hPa ENE 4.3mph /  6.9km/h 6.3mph /  10.1km/h 96% 0in /  0.0mm
04:00 40.6 °F /  4.8 °C 39.6 °F /  4.2 °C 29.9in /  1013.1hPa ENE 5.6mph /  9.0km/h 6mph /  9.7km/h 96% 0in /  0.0mm
04:05 40.6 °F /  4.8 °C 39.6 °F /  4.2 °C 29.9in /  1013.1hPa East 3.6mph /  5.8km/h 8.5mph /  13.7km/h 96% 0in /  0.0mm
04:10 40.5 °F /  4.7 °C 39.4 °F /  4.1 °C 29.9in /  1013.1hPa East 2.5mph /  4.0km/h 8.5mph /  13.7km/h 96% 0in /  0.0mm
04:15 40.5 °F /  4.7 °C 39.4 °F /  4.1 °C 29.9in /  1013.1hPa East 4.7mph /  7.6km/h 5.8mph /  9.3km/h 96% 0in /  0.0mm
04:20 40.5 °F /  4.7 °C 39.4 °F /  4.1 °C 29.9in /  1013.1hPa East 2.7mph /  4.3km/h 5.8mph /  9.3km/h 96% 0in /  0.0mm
04:25 40.5 °F /  4.7 °C 39.4 °F /  4.1 °C 29.9in /  1013.1hPa East 4.7mph /  7.6km/h 6.3mph /  10.1km/h 96% 0in /  0.0mm
04:30 40.5 °F /  4.7 °C 39.4 °F /  4.1 °C 29.9in /  1013.1hPa ENE 2.7mph /  4.3km/h 6.3mph /  10.1km/h 96% 0in /  0.0mm
04:35 40.5 °F /  4.7 °C 39.4 °F /  4.1 °C 29.9in /  1013.1hPa NE 4mph /  6.4km/h 4.9mph /  7.9km/h 96% 0in /  0.0mm
04:40 40.5 °F /  4.7 °C 39.4 °F /  4.1 °C 29.9in /  1013.1hPa ENE 2.9mph /  4.7km/h 5.8mph /  9.3km/h 96% 0in /  0.0mm
04:45 40.5 °F /  4.7 °C 39.4 °F /  4.1 °C 29.9in /  1013.1hPa ENE 3.4mph /  5.5km/h 5.8mph /  9.3km/h 96% 0in /  0.0mm
04:50 40.5 °F /  4.7 °C 39.4 °F /  4.1 °C 29.9in /  1013.1hPa East 3.1mph /  5.0km/h 6.5mph /  10.5km/h 96% 0in /  0.0mm
04:55 40.5 °F /  4.7 °C 39.4 °F /  4.1 °C 29.9in /  1013.1hPa ENE 3.6mph /  5.8km/h 6.5mph /  10.5km/h 96% 0in /  0.0mm
05:00 40.5 °F /  4.7 °C 39.4 °F /  4.1 °C 29.9in /  1013.1hPa NE 4mph /  6.4km/h 6.3mph /  10.1km/h 96% 0in /  0.0mm
05:05 40.5 °F /  4.7 °C 39.4 °F /  4.1 °C 29.9in /  1013.1hPa NE 6.3mph /  10.1km/h 6.3mph /  10.1km/h 96% 0in /  0.0mm
05:10 40.5 °F /  4.7 °C 39.4 °F /  4.1 °C 29.9in /  1013.1hPa NE 3.4mph /  5.5km/h 6.3mph /  10.1km/h 96% 0in /  0.0mm
05:15 40.5 °F /  4.7 °C 39.7 °F /  4.3 °C 29.9in /  1013.1hPa East 3.6mph /  5.8km/h 6.3mph /  10.1km/h 97% 0in /  0.0mm
05:20 40.3 °F /  4.6 °C 39.2 °F /  4.0 °C 29.9in /  1013.1hPa ENE 3.4mph /  5.5km/h 6.3mph /  10.1km/h 96% 0in /  0.0mm
05:25 40.3 °F /  4.6 °C 39.2 °F /  4.0 °C 29.9in /  1014.1hPa ENE 2.7mph /  4.3km/h 6mph /  9.7km/h 96% 0in /  0.0mm
05:30 40.3 °F /  4.6 °C 39.2 °F /  4.0 °C 29.9in /  1014.1hPa ENE 5.8mph /  9.3km/h 6.5mph /  10.5km/h 96% 0in /  0.0mm
05:35 40.3 °F /  4.6 °C 39.2 °F /  4.0 °C 29.9in /  1014.1hPa East 3.6mph /  5.8km/h 6.5mph /  10.5km/h 96% 0in /  0.0mm
05:40 40.1 °F /  4.5 °C 39 °F /  3.9 °C 29.9in /  1013.1hPa East 3.1mph /  5.0km/h 6.3mph /  10.1km/h 96% 0in /  0.0mm
05:45 40.1 °F /  4.5 °C 39 °F /  3.9 °C 29.9in /  1013.1hPa NE 3.6mph /  5.8km/h 6.5mph /  10.5km/h 96% 0in /  0.0mm
05:50 40.1 °F /  4.5 °C 39 °F /  3.9 °C 29.9in /  1013.1hPa ENE 3.8mph /  6.1km/h 6.5mph /  10.5km/h 96% 0in /  0.0mm
05:55 39.9 °F /  4.4 °C 38.8 °F /  3.8 °C 29.9in /  1014.1hPa East 4mph /  6.4km/h 6.5mph /  10.5km/h 96% 0in /  0.0mm
06:00 39.9 °F /  4.4 °C 38.8 °F /  3.8 °C 29.9in /  1014.1hPa ENE 4.9mph /  7.9km/h 8.5mph /  13.7km/h 96% 0in /  0.0mm
06:05 39.7 °F /  4.3 °C 38.7 °F /  3.7 °C 29.9in /  1014.1hPa East 4.9mph /  7.9km/h 8.5mph /  13.7km/h 96% 0in /  0.0mm
06:10 39.7 °F /  4.3 °C 38.7 °F /  3.7 °C 29.9in /  1014.1hPa ENE 5.8mph /  9.3km/h 8.5mph /  13.7km/h 96% 0in /  0.0mm
06:15 39.6 °F /  4.2 °C 38.5 °F /  3.6 °C 29.9in /  1014.1hPa East 6mph /  9.7km/h 6.9mph /  11.1km/h 96% 0in /  0.0mm
06:20 39.6 °F /  4.2 °C 38.5 °F /  3.6 °C 29.9in /  1014.1hPa East 4.7mph /  7.6km/h 7.4mph /  11.9km/h 96% 0in /  0.0mm
06:30 39.4 °F /  4.1 °C 38.5 °F /  3.6 °C 29.9in /  1013.1hPa ENE 6mph /  9.7km/h 7.4mph /  11.9km/h 96% 0in /  0.0mm
06:35 39.4 °F /  4.1 °C 38.5 °F /  3.6 °C 29.9in /  1013.1hPa ENE 6.5mph /  10.5km/h 8.9mph /  14.3km/h 96% 0in /  0.0mm
06:40 39.2 °F /  4.0 °C 38.1 °F /  3.4 °C 29.9in /  1014.1hPa NE 5.6mph /  9.0km/h 8.9mph /  14.3km/h 96% 0in /  0.0mm
06:45 39.2 °F /  4.0 °C 38.1 °F /  3.4 °C 29.9in /  1014.1hPa ENE 5.6mph /  9.0km/h 7.8mph /  12.6km/h 96% 0in /  0.0mm
06:50 39 °F /  3.9 °C 37.9 °F /  3.3 °C 29.9in /  1014.1hPa NE 5.8mph /  9.3km/h 7.2mph /  11.6km/h 96% 0in /  0.0mm
06:55 39 °F /  3.9 °C 37.9 °F /  3.3 °C 29.9in /  1014.1hPa East 6.5mph /  10.5km/h 7.6mph /  12.2km/h 96% 0in /  0.0mm
07:00 39 °F /  3.9 °C 37.9 °F /  3.3 °C 29.9in /  1014.1hPa East 5.8mph /  9.3km/h 8.7mph /  14.0km/h 96% 0in /  0.0mm
07:05 38.8 °F /  3.8 °C 38.1 °F /  3.4 °C 29.9in /  1014.1hPa East 5.6mph /  9.0km/h 8.7mph /  14.0km/h 97% 0in /  0.0mm
07:10 38.8 °F /  3.8 °C 38.1 °F /  3.4 °C 29.9in /  1014.1hPa East 5.8mph /  9.3km/h 8.7mph /  14.0km/h 97% 0in /  0.0mm
07:15 38.8 °F /  3.8 °C 38.1 °F /  3.4 °C 29.9in /  1014.1hPa East 4.3mph /  6.9km/h 8.7mph /  14.0km/h 97% 0in /  0.0mm
07:20 38.7 °F /  3.7 °C 37.9 °F /  3.3 °C 29.9in /  1014.1hPa East 3.6mph /  5.8km/h 6.5mph /  10.5km/h 97% 0in /  0.0mm
07:25 38.7 °F /  3.7 °C 37.9 °F /  3.3 °C 29.9in /  1014.1hPa East 6mph /  9.7km/h 6mph /  9.7km/h 97% 0in /  0.0mm
07:30 38.7 °F /  3.7 °C 37.9 °F /  3.3 °C 29.9in /  1014.1hPa East 5.8mph /  9.3km/h 6mph /  9.7km/h 97% 0in /  0.0mm
07:35 38.7 °F /  3.7 °C 37.9 °F /  3.3 °C 29.9in /  1014.1hPa East 4mph /  6.4km/h 6.3mph /  10.1km/h 97% 0in /  0.0mm
07:40 38.7 °F /  3.7 °C 37.9 °F /  3.3 °C 29.9in /  1014.1hPa East 4mph /  6.4km/h 7.4mph /  11.9km/h 97% 0in /  0.0mm
07:45 38.7 °F /  3.7 °C 37.9 °F /  3.3 °C 29.9in /  1014.1hPa ENE 5.4mph /  8.7km/h 7.6mph /  12.2km/h 97% 0in /  0.0mm
07:50 38.7 °F /  3.7 °C 37.9 °F /  3.3 °C 29.9in /  1014.1hPa East 3.8mph /  6.1km/h 7.6mph /  12.2km/h 97% 0in /  0.0mm
07:55 38.7 °F /  3.7 °C 37.9 °F /  3.3 °C 29.9in /  1014.1hPa East 3.8mph /  6.1km/h 7.2mph /  11.6km/h 97% 0in /  0.0mm
08:00 38.7 °F /  3.7 °C 37.9 °F /  3.3 °C 29.9in /  1014.1hPa East 5.8mph /  9.3km/h 6.3mph /  10.1km/h 97% 0in /  0.0mm
08:05 38.7 °F /  3.7 °C 37.9 °F /  3.3 °C 29.9in /  1014.1hPa ESE 2.9mph /  4.7km/h 6.3mph /  10.1km/h 97% 0in /  0.0mm
08:10 38.7 °F /  3.7 °C 37.9 °F /  3.3 °C 29.9in /  1014.1hPa ESE 6.3mph /  10.1km/h 7.6mph /  12.2km/h 97% 0in /  0.0mm
08:15 38.7 °F /  3.7 °C 37.9 °F /  3.3 °C 29.9in /  1014.1hPa East 4.9mph /  7.9km/h 7.6mph /  12.2km/h 97% 0in /  0.0mm
08:20 38.7 °F /  3.7 °C 37.9 °F /  3.3 °C 29.9in /  1014.1hPa ESE 5.8mph /  9.3km/h 6.5mph /  10.5km/h 97% 0in /  0.0mm
08:25 38.7 °F /  3.7 °C 37.9 °F /  3.3 °C 29.9in /  1014.1hPa ENE 4.3mph /  6.9km/h 7.8mph /  12.6km/h 97% 0in /  0.0mm
08:30 38.8 °F /  3.8 °C 38.1 °F /  3.4 °C 29.9in /  1014.1hPa East 4mph /  6.4km/h 7.8mph /  12.6km/h 97% 0in /  0.0mm
08:35 38.8 °F /  3.8 °C 38.1 °F /  3.4 °C 29.9in /  1014.1hPa East 7.4mph /  11.9km/h 7.4mph /  11.9km/h 97% 0in /  0.0mm
08:40 38.8 °F /  3.8 °C 38.1 °F /  3.4 °C 30in /  1015.1hPa ESE 4.7mph /  7.6km/h 7.4mph /  11.9km/h 97% 0in /  0.0mm
08:45 38.8 °F /  3.8 °C 38.1 °F /  3.4 °C 30in /  1015.1hPa East 5.4mph /  8.7km/h 6.9mph /  11.1km/h 97% 0in /  0.0mm
08:50 38.8 °F /  3.8 °C 38.1 °F /  3.4 °C 30in /  1015.1hPa East 5.6mph /  9.0km/h 6.3mph /  10.1km/h 97% 0in /  0.0mm
08:55 38.8 °F /  3.8 °C 38.1 °F /  3.4 °C 30in /  1015.1hPa ENE 7.4mph /  11.9km/h 8.5mph /  13.7km/h 97% 0in /  0.0mm
09:00 38.7 °F /  3.7 °C 37.9 °F /  3.3 °C 30in /  1015.1hPa East 4mph /  6.4km/h 8.5mph /  13.7km/h 97% 0in /  0.0mm
09:05 38.7 °F /  3.7 °C 37.9 °F /  3.3 °C 30in /  1015.1hPa East 6mph /  9.7km/h 7.6mph /  12.2km/h 97% 0in /  0.0mm
09:10 38.7 °F /  3.7 °C 37.9 °F /  3.3 °C 30in /  1015.1hPa ESE 3.8mph /  6.1km/h 6.3mph /  10.1km/h 97% 0in /  0.0mm
09:15 38.7 °F /  3.7 °C 37.9 °F /  3.3 °C 30in /  1015.1hPa ESE 4.3mph /  6.9km/h 7.2mph /  11.6km/h 97% 0in /  0.0mm
09:20 38.5 °F /  3.6 °C 37.8 °F /  3.2 °C 30in /  1015.1hPa East 6mph /  9.7km/h 7.2mph /  11.6km/h 97% 0in /  0.0mm
09:25 38.5 °F /  3.6 °C 37.8 °F /  3.2 °C 30in /  1015.1hPa ESE 3.6mph /  5.8km/h 7.2mph /  11.6km/h 97% 0in /  0.0mm
09:30 38.5 °F /  3.6 °C 37.8 °F /  3.2 °C 30in /  1015.1hPa ESE 3.8mph /  6.1km/h 6.3mph /  10.1km/h 97% 0in /  0.0mm
09:35 38.5 °F /  3.6 °C 37.8 °F /  3.2 °C 30in /  1015.1hPa ESE 4.3mph /  6.9km/h 7.4mph /  11.9km/h 97% 0in /  0.0mm
09:40 38.5 °F /  3.6 °C 37.8 °F /  3.2 °C 30in /  1015.1hPa ESE 8.1mph /  13.0km/h 8.5mph /  13.7km/h 97% 0in /  0.0mm
09:45 38.5 °F /  3.6 °C 37.8 °F /  3.2 °C 30in /  1015.1hPa ESE 6mph /  9.7km/h 9.6mph /  15.4km/h 97% 0in /  0.0mm
09:50 38.5 °F /  3.6 °C 37.8 °F /  3.2 °C 30in /  1015.1hPa East 7.4mph /  11.9km/h 9.6mph /  15.4km/h 97% 0in /  0.0mm
09:55 38.5 °F /  3.6 °C 37.8 °F /  3.2 °C 30in /  1015.1hPa ESE 5.8mph /  9.3km/h 8.5mph /  13.7km/h 97% 0in /  0.0mm
10:00 38.5 °F /  3.6 °C 37.8 °F /  3.2 °C 30in /  1015.1hPa East 7.8mph /  12.6km/h 8.5mph /  13.7km/h 97% 0in /  0.0mm
10:05 38.5 °F /  3.6 °C 37.8 °F /  3.2 °C 30in /  1015.1hPa ESE 8.5mph /  13.7km/h 8.7mph /  14.0km/h 97% 0in /  0.0mm
10:10 38.5 °F /  3.6 °C 37.8 °F /  3.2 °C 30in /  1015.1hPa East 4.9mph /  7.9km/h 9.4mph /  15.1km/h 97% 0in /  0.0mm
10:15 38.5 °F /  3.6 °C 37.8 °F /  3.2 °C 30in /  1015.1hPa ESE 6mph /  9.7km/h 9.4mph /  15.1km/h 97% 0in /  0.0mm
10:20 38.7 °F /  3.7 °C 37.9 °F /  3.3 °C 30in /  1015.1hPa ENE 3.4mph /  5.5km/h 8.7mph /  14.0km/h 97% 0in /  0.0mm
10:25 38.8 °F /  3.8 °C 38.1 °F /  3.4 °C 30in /  1015.1hPa East 4.3mph /  6.9km/h 8.7mph /  14.0km/h 97% 0in /  0.0mm
10:30 39 °F /  3.9 °C 38.3 °F /  3.5 °C 30in /  1015.1hPa East 4.9mph /  7.9km/h 7.2mph /  11.6km/h 97% 0in /  0.0mm
10:35 39 °F /  3.9 °C 37.9 °F /  3.3 °C 30in /  1015.1hPa ESE 8.1mph /  13.0km/h 8.1mph /  13.0km/h 96% 0in /  0.0mm
10:40 39 °F /  3.9 °C 37.9 °F /  3.3 °C 29.9in /  1014.1hPa ESE 7.8mph /  12.6km/h 8.5mph /  13.7km/h 96% 0in /  0.0mm
10:45 39 °F /  3.9 °C 37.9 °F /  3.3 °C 29.9in /  1014.1hPa ESE 7.8mph /  12.6km/h 10.3mph /  16.6km/h 96% 0in /  0.0mm
10:50 39 °F /  3.9 °C 37.9 °F /  3.3 °C 29.9in /  1014.1hPa East 7.8mph /  12.6km/h 10.3mph /  16.6km/h 96% 0in /  0.0mm
10:55 39 °F /  3.9 °C 37.9 °F /  3.3 °C 30in /  1015.1hPa East 5.6mph /  9.0km/h 9.8mph /  15.8km/h 96% 0in /  0.0mm
11:00 39.2 °F /  4.0 °C 38.1 °F /  3.4 °C 30in /  1015.1hPa ESE 5.8mph /  9.3km/h 9.4mph /  15.1km/h 96% 0in /  0.0mm
11:05 39 °F /  3.9 °C 37.9 °F /  3.3 °C 30in /  1015.1hPa ESE 7.6mph /  12.2km/h 9.8mph /  15.8km/h 96% 0in /  0.0mm
11:10 39.2 °F /  4.0 °C 38.1 °F /  3.4 °C 29.9in /  1014.1hPa SE 5.6mph /  9.0km/h 9.8mph /  15.8km/h 96% 0in /  0.0mm
11:15 39.2 °F /  4.0 °C 38.1 °F /  3.4 °C 29.9in /  1014.1hPa ESE 4.9mph /  7.9km/h 9.6mph /  15.4km/h 96% 0in /  0.0mm
11:20 39.2 °F /  4.0 °C 38.1 °F /  3.4 °C 29.9in /  1014.1hPa SE 7.8mph /  12.6km/h 8.5mph /  13.7km/h 96% 0in /  0.0mm
11:25 39.4 °F /  4.1 °C 38.5 °F /  3.6 °C 29.9in /  1014.1hPa ESE 6.5mph /  10.5km/h 8.7mph /  14.0km/h 96% 0in /  0.0mm
11:30 39.4 °F /  4.1 °C 38.5 °F /  3.6 °C 29.9in /  1014.1hPa ESE 6mph /  9.7km/h 8.7mph /  14.0km/h 96% 0in /  0.0mm
11:35 39.4 °F /  4.1 °C 38.5 °F /  3.6 °C 29.9in /  1014.1hPa East 7.6mph /  12.2km/h 8.7mph /  14.0km/h 96% 0in /  0.0mm
11:40 39.4 °F /  4.1 °C 38.5 °F /  3.6 °C 30in /  1015.1hPa ESE 8.1mph /  13.0km/h 8.7mph /  14.0km/h 96% 0in /  0.0mm
11:45 39.6 °F /  4.2 °C 38.5 °F /  3.6 °C 30in /  1015.1hPa SE 6.5mph /  10.5km/h 8.7mph /  14.0km/h 96% 0in /  0.0mm
11:50 39.6 °F /  4.2 °C 38.5 °F /  3.6 °C 30in /  1015.1hPa ESE 8.1mph /  13.0km/h 8.7mph /  14.0km/h 96% 0in /  0.0mm
11:55 39.6 °F /  4.2 °C 38.5 °F /  3.6 °C 29.9in /  1014.1hPa ESE 5.4mph /  8.7km/h 8.1mph /  13.0km/h 96% 0in /  0.0mm
12:00 39.7 °F /  4.3 °C 38.7 °F /  3.7 °C 29.9in /  1014.1hPa ESE 3.1mph /  5.0km/h 7.6mph /  12.2km/h 96% 0in /  0.0mm
12:05 39.7 °F /  4.3 °C 38.5 °F /  3.6 °C 29.9in /  1014.1hPa East 5.6mph /  9.0km/h 6.3mph /  10.1km/h 95% 0in /  0.0mm
12:10 39.7 °F /  4.3 °C 38.5 °F /  3.6 °C 30in /  1015.1hPa SE 2.9mph /  4.7km/h 6.3mph /  10.1km/h 95% 0in /  0.0mm
12:15 39.9 °F /  4.4 °C 38.8 °F /  3.8 °C 30in /  1015.1hPa East 2.9mph /  4.7km/h 6.3mph /  10.1km/h 96% 0in /  0.0mm
12:20 40.1 °F /  4.5 °C 38.8 °F /  3.8 °C 30in /  1015.1hPa East 5.8mph /  9.3km/h 6.5mph /  10.5km/h 95% 0in /  0.0mm
12:25 40.1 °F /  4.5 °C 39 °F /  3.9 °C 30in /  1015.1hPa East 5.4mph /  8.7km/h 7.2mph /  11.6km/h 96% 0in /  0.0mm
12:30 40.1 °F /  4.5 °C 39 °F /  3.9 °C 30in /  1015.1hPa ESE 7.2mph /  11.6km/h 7.4mph /  11.9km/h 96% 0in /  0.0mm
12:35 40.3 °F /  4.6 °C 39 °F /  3.9 °C 30in /  1015.1hPa ENE 6mph /  9.7km/h 7.8mph /  12.6km/h 95% 0in /  0.0mm
12:40 40.1 °F /  4.5 °C 38.8 °F /  3.8 °C 29.9in /  1014.1hPa ESE 4.3mph /  6.9km/h 7.8mph /  12.6km/h 95% 0in /  0.0mm
12:45 40.3 °F /  4.6 °C 39 °F /  3.9 °C 29.9in /  1014.1hPa East 4.3mph /  6.9km/h 8.1mph /  13.0km/h 95% 0in /  0.0mm
12:50 40.3 °F /  4.6 °C 39 °F /  3.9 °C 29.9in /  1014.1hPa East 4mph /  6.4km/h 8.1mph /  13.0km/h 95% 0in /  0.0mm
12:55 40.3 °F /  4.6 °C 39 °F /  3.9 °C 30in /  1015.1hPa SE 4.9mph /  7.9km/h 6.9mph /  11.1km/h 95% 0in /  0.0mm
13:00 40.3 °F /  4.6 °C 39 °F /  3.9 °C 30in /  1015.1hPa SE 6mph /  9.7km/h 7.4mph /  11.9km/h 95% 0in /  0.0mm
13:05 40.3 °F /  4.6 °C 39 °F /  3.9 °C 30in /  1015.1hPa ESE 4.7mph /  7.6km/h 7.4mph /  11.9km/h 95% 0in /  0.0mm
13:10 40.3 °F /  4.6 °C 39 °F /  3.9 °C 30in /  1015.1hPa ESE 6.3mph /  10.1km/h 6.5mph /  10.5km/h 95% 0in /  0.0mm
13:15 40.3 °F /  4.6 °C 39 °F /  3.9 °C 30in /  1015.1hPa SE 7.4mph /  11.9km/h 7.8mph /  12.6km/h 95% 0in /  0.0mm
13:20 40.3 °F /  4.6 °C 39 °F /  3.9 °C 30in /  1015.1hPa ESE 5.8mph /  9.3km/h 8.5mph /  13.7km/h 95% 0in /  0.0mm
13:25 40.3 °F /  4.6 °C 39 °F /  3.9 °C 30in /  1015.1hPa ESE 3.6mph /  5.8km/h 8.5mph /  13.7km/h 95% 0in /  0.0mm
13:30 40.3 °F /  4.6 °C 39 °F /  3.9 °C 30in /  1015.1hPa SE 6.5mph /  10.5km/h 8.1mph /  13.0km/h 95% 0in /  0.0mm
13:35 40.3 °F /  4.6 °C 39 °F /  3.9 °C 30in /  1015.1hPa ESE 5.4mph /  8.7km/h 7.6mph /  12.2km/h 95% 0in /  0.0mm
13:40 40.5 °F /  4.7 °C 39 °F /  3.9 °C 30in /  1015.1hPa ESE 7.2mph /  11.6km/h 7.8mph /  12.6km/h 95% 0in /  0.0mm
13:45 40.5 °F /  4.7 °C 39 °F /  3.9 °C 30in /  1015.1hPa SE 6.7mph /  10.8km/h 7.8mph /  12.6km/h 95% 0in /  0.0mm
13:50 40.5 °F /  4.7 °C 39 °F /  3.9 °C 30in /  1015.1hPa ESE 5.4mph /  8.7km/h 8.5mph /  13.7km/h 95% 0in /  0.0mm
13:55 40.5 °F /  4.7 °C 39 °F /  3.9 °C 30in /  1015.1hPa ESE 5.6mph /  9.0km/h 8.5mph /  13.7km/h 95% 0in /  0.0mm
14:00 40.5 °F /  4.7 °C 39 °F /  3.9 °C 30in /  1015.1hPa East 5.4mph /  8.7km/h 7.4mph /  11.9km/h 95% 0in /  0.0mm
14:05 40.5 °F /  4.7 °C 38.8 °F /  3.8 °C 30in /  1015.1hPa East 7.4mph /  11.9km/h 10.5mph /  16.9km/h 94% 0in /  0.0mm
14:10 40.3 °F /  4.6 °C 38.7 °F /  3.7 °C 30in /  1015.1hPa East 7.4mph /  11.9km/h 10.5mph /  16.9km/h 94% 0in /  0.0mm
14:15 40.3 °F /  4.6 °C 38.7 °F /  3.7 °C 30in /  1015.1hPa East 7.6mph /  12.2km/h 10.1mph /  16.3km/h 94% 0in /  0.0mm
14:20 40.3 °F /  4.6 °C 38.7 °F /  3.7 °C 30in /  1015.1hPa East 8.7mph /  14.0km/h 8.7mph /  14.0km/h 94% 0in /  0.0mm
14:25 40.1 °F /  4.5 °C 38.5 °F /  3.6 °C 30in /  1015.1hPa ESE 6.5mph /  10.5km/h 10.1mph /  16.3km/h 94% 0in /  0.0mm
14:30 40.1 °F /  4.5 °C 38.5 °F /  3.6 °C 30in /  1015.1hPa East 6.9mph /  11.1km/h 10.1mph /  16.3km/h 94% 0in /  0.0mm
14:36 40.1 °F /  4.5 °C 38.5 °F /  3.6 °C 30in /  1015.1hPa ESE 6.5mph /  10.5km/h 8.5mph /  13.7km/h 94% 0in /  0.0mm
14:41 40.1 °F /  4.5 °C 38.5 °F /  3.6 °C 30in /  1015.1hPa ENE 5.4mph /  8.7km/h 8.5mph /  13.7km/h 94% 0in /  0.0mm
14:46 40.1 °F /  4.5 °C 38.5 °F /  3.6 °C 30in /  1015.1hPa ESE 8.1mph /  13.0km/h 10.3mph /  16.6km/h 94% 0in /  0.0mm
14:47 40.1 °F /  4.5 °C 38.5 °F /  3.6 °C 30in /  1015.1hPa East 6mph /  9.7km/h 10.3mph /  16.6km/h 94% 0in /  0.0mm
14:52 39.9 °F /  4.4 °C 38.5 °F /  3.6 °C 30in /  1015.1hPa East 6.9mph /  11.1km/h 9.8mph /  15.8km/h 94% 0in /  0.0mm
14:57 39.9 °F /  4.4 °C 38.5 °F /  3.6 °C 30in /  1015.1hPa East 9.8mph /  15.8km/h 9.8mph /  15.8km/h 94% 0in /  0.0mm
15:02 39.9 °F /  4.4 °C 38.5 °F /  3.6 °C 30in /  1015.1hPa ESE 4.3mph /  6.9km/h 9.8mph /  15.8km/h 94% 0in /  0.0mm
15:07 40.1 °F /  4.5 °C 38.5 °F /  3.6 °C 30in /  1015.1hPa ESE 7.6mph /  12.2km/h 9.8mph /  15.8km/h 94% 0in /  0.0mm
15:12 40.1 °F /  4.5 °C 38.5 °F /  3.6 °C 30in /  1015.1hPa East 10.1mph /  16.3km/h 10.1mph /  16.3km/h 94% 0in /  0.0mm
15:17 40.1 °F /  4.5 °C 38.5 °F /  3.6 °C 30in /  1015.1hPa ESE 6.3mph /  10.1km/h 10.1mph /  16.3km/h 94% 0in /  0.0mm
15:22 40.3 °F /  4.6 °C 38.7 °F /  3.7 °C 30in /  1015.1hPa ESE 6mph /  9.7km/h 10.1mph /  16.3km/h 94% 0in /  0.0mm
15:27 40.3 °F /  4.6 °C 38.7 °F /  3.7 °C 30in /  1015.1hPa SE 7.6mph /  12.2km/h 10.1mph /  16.3km/h 94% 0in /  0.0mm
15:32 40.5 °F /  4.7 °C 38.8 °F /  3.8 °C 30in /  1015.1hPa East 7.4mph /  11.9km/h 10.5mph /  16.9km/h 94% 0in /  0.0mm
15:37 40.5 °F /  4.7 °C 38.8 °F /  3.8 °C 30in /  1015.1hPa SE 7.8mph /  12.6km/h 10.5mph /  16.9km/h 94% 0in /  0.0mm
15:42 40.3 °F /  4.6 °C 38.5 °F /  3.6 °C 30in /  1015.1hPa East 8.9mph /  14.3km/h 10.1mph /  16.3km/h 93% 0in /  0.0mm
15:47 40.3 °F /  4.6 °C 38.5 °F /  3.6 °C 30in /  1015.1hPa ENE 5.8mph /  9.3km/h 10.1mph /  16.3km/h 93% 0in /  0.0mm
15:52 40.3 °F /  4.6 °C 38.5 °F /  3.6 °C 30in /  1015.1hPa ESE 4mph /  6.4km/h 8.9mph /  14.3km/h 93% 0in /  0.0mm
15:57 40.5 °F /  4.7 °C 38.8 °F /  3.8 °C 30in /  1015.1hPa ESE 5.4mph /  8.7km/h 7.8mph /  12.6km/h 94% 0in /  0.0mm
16:02 40.5 °F /  4.7 °C 38.7 °F /  3.7 °C 30in /  1015.1hPa ESE 5.8mph /  9.3km/h 7.8mph /  12.6km/h 93% 0in /  0.0mm
16:07 40.5 °F /  4.7 °C 38.7 °F /  3.7 °C 30in /  1015.1hPa ESE 2.9mph /  4.7km/h 8.7mph /  14.0km/h 93% 0in /  0.0mm
16:12 40.5 °F /  4.7 °C 38.7 °F /  3.7 °C 30in /  1015.1hPa SE 4.9mph /  7.9km/h 8.7mph /  14.0km/h 93% 0in /  0.0mm
16:17 40.5 °F /  4.7 °C 38.7 °F /  3.7 °C 30in /  1015.1hPa Calm   6.5mph /  10.5km/h 93% 0in /  0.0mm
16:22 40.6 °F /  4.8 °C 38.8 °F /  3.8 °C 30in /  1015.1hPa SE 4.9mph /  7.9km/h 6.3mph /  10.1km/h 93% 0in /  0.0mm
16:27 40.5 °F /  4.7 °C 38.7 °F /  3.7 °C 30in /  1015.1hPa ESE 3.6mph /  5.8km/h 7.4mph /  11.9km/h 93% 0in /  0.0mm
16:32 40.5 °F /  4.7 °C 38.7 °F /  3.7 °C 30in /  1015.1hPa ESE 5.8mph /  9.3km/h 7.4mph /  11.9km/h 93% 0in /  0.0mm
16:37 40.5 °F /  4.7 °C 38.7 °F /  3.7 °C 30in /  1015.1hPa ESE 5.8mph /  9.3km/h 7.6mph /  12.2km/h 93% 0in /  0.0mm
16:42 40.5 °F /  4.7 °C 38.7 °F /  3.7 °C 30in /  1015.1hPa ESE 6.3mph /  10.1km/h 7.6mph /  12.2km/h 93% 0in /  0.0mm
16:47 40.3 °F /  4.6 °C 38.5 °F /  3.6 °C 30in /  1015.1hPa ESE 3.6mph /  5.8km/h 8.5mph /  13.7km/h 93% 0in /  0.0mm
16:52 40.3 °F /  4.6 °C 38.5 °F /  3.6 °C 30in /  1015.1hPa East 3.6mph /  5.8km/h 8.5mph /  13.7km/h 93% 0in /  0.0mm
16:57 40.3 °F /  4.6 °C 38.5 °F /  3.6 °C 30in /  1015.1hPa ESE 6mph /  9.7km/h 8.1mph /  13.0km/h 93% 0in /  0.0mm
17:02 40.1 °F /  4.5 °C 38.3 °F /  3.5 °C 30in /  1015.1hPa ESE 7.6mph /  12.2km/h 10.3mph /  16.6km/h 93% 0in /  0.0mm
17:07 39.9 °F /  4.4 °C 37.8 °F /  3.2 °C 30in /  1015.1hPa East 4.9mph /  7.9km/h 10.3mph /  16.6km/h 92% 0in /  0.0mm
17:12 39.7 °F /  4.3 °C 37.6 °F /  3.1 °C 30in /  1015.1hPa ESE 4.9mph /  7.9km/h 8.5mph /  13.7km/h 92% 0in /  0.0mm
17:17 39.7 °F /  4.3 °C 37.9 °F /  3.3 °C 30in /  1015.1hPa ESE 4mph /  6.4km/h 8.5mph /  13.7km/h 93% 0in /  0.0mm
17:22 39.6 °F /  4.2 °C 37.8 °F /  3.2 °C 30in /  1015.1hPa SE 4.3mph /  6.9km/h 8.5mph /  13.7km/h 93% 0in /  0.0mm
17:27 39.6 °F /  4.2 °C 37.8 °F /  3.2 °C 30in /  1015.1hPa ESE 3.8mph /  6.1km/h 7.4mph /  11.9km/h 93% 0in /  0.0mm
17:32 39.6 °F /  4.2 °C 37.8 °F /  3.2 °C 30in /  1015.1hPa ESE 4.9mph /  7.9km/h 6.3mph /  10.1km/h 93% 0in /  0.0mm
17:37 39.4 °F /  4.1 °C 37.6 °F /  3.1 °C 29.9in /  1014.1hPa SE 3.8mph /  6.1km/h 8.7mph /  14.0km/h 93% 0in /  0.0mm
17:42 39.4 °F /  4.1 °C 37.6 °F /  3.1 °C 29.9in /  1014.1hPa ESE 4mph /  6.4km/h 8.7mph /  14.0km/h 93% 0in /  0.0mm
17:47 39.4 °F /  4.1 °C 37.8 °F /  3.2 °C 29.9in /  1014.1hPa ESE 3.8mph /  6.1km/h 5.6mph /  9.0km/h 94% 0in /  0.0mm
17:52 39.4 °F /  4.1 °C 37.8 °F /  3.2 °C 30in /  1015.1hPa SE 4.3mph /  6.9km/h 7.8mph /  12.6km/h 94% 0in /  0.0mm
17:57 39.4 °F /  4.1 °C 37.8 °F /  3.2 °C 30in /  1015.1hPa SE 4.3mph /  6.9km/h 7.8mph /  12.6km/h 94% 0in /  0.0mm
18:02 39.4 °F /  4.1 °C 37.8 °F /  3.2 °C 30in /  1015.1hPa ESE 6mph /  9.7km/h 7.2mph /  11.6km/h 94% 0in /  0.0mm
18:07 39.4 °F /  4.1 °C 37.8 °F /  3.2 °C 30in /  1015.1hPa SE 2.5mph /  4.0km/h 6.9mph /  11.1km/h 94% 0in /  0.0mm
18:12 39.4 °F /  4.1 °C 37.8 °F /  3.2 °C 30in /  1015.1hPa SE 6mph /  9.7km/h 6.5mph /  10.5km/h 94% 0in /  0.0mm
18:17 39.4 °F /  4.1 °C 37.8 °F /  3.2 °C 30in /  1015.1hPa Calm   6.5mph /  10.5km/h 94% 0in /  0.0mm
18:22 39.4 °F /  4.1 °C 37.8 °F /  3.2 °C 30in /  1015.1hPa ESE 2.7mph /  4.3km/h 6mph /  9.7km/h 94% 0in /  0.0mm
18:27 39.6 °F /  4.2 °C 38.3 °F /  3.5 °C 30in /  1015.1hPa ESE 6.5mph /  10.5km/h 6.5mph /  10.5km/h 95% 0in /  0.0mm
18:32 39.6 °F /  4.2 °C 38.3 °F /  3.5 °C 30in /  1015.1hPa SE 3.1mph /  5.0km/h 6.5mph /  10.5km/h 95% 0in /  0.0mm
18:37 39.6 °F /  4.2 °C 38.3 °F /  3.5 °C 30in /  1015.1hPa SSE 2mph /  3.2km/h 6.5mph /  10.5km/h 95% 0in /  0.0mm
18:42 39.6 °F /  4.2 °C 38.3 °F /  3.5 °C 30in /  1015.1hPa SE 4.7mph /  7.6km/h 5.8mph /  9.3km/h 95% 0in /  0.0mm
18:47 39.6 °F /  4.2 °C 38.3 °F /  3.5 °C 30in /  1015.1hPa East 5.6mph /  9.0km/h 5.8mph /  9.3km/h 95% 0in /  0.0mm
18:52 39.6 °F /  4.2 °C 38.3 °F /  3.5 °C 29.9in /  1014.1hPa SSE 4mph /  6.4km/h 5.6mph /  9.0km/h 95% 0in /  0.0mm
18:57 39.6 °F /  4.2 °C 38.3 °F /  3.5 °C 29.9in /  1014.1hPa East 5.4mph /  8.7km/h 6mph /  9.7km/h 95% 0in /  0.0mm
19:02 39.6 °F /  4.2 °C 38.3 °F /  3.5 °C 29.9in /  1014.1hPa SE 5.8mph /  9.3km/h 6.5mph /  10.5km/h 95% 0in /  0.0mm
19:07 39.6 °F /  4.2 °C 38.3 °F /  3.5 °C 30in /  1015.1hPa ESE 2.5mph /  4.0km/h 6.5mph /  10.5km/h 95% 0in /  0.0mm
19:12 39.6 °F /  4.2 °C 38.3 °F /  3.5 °C 30in /  1015.1hPa ESE 6mph /  9.7km/h 6.7mph /  10.8km/h 95% 0in /  0.0mm
19:17 39.6 °F /  4.2 °C 38.3 °F /  3.5 °C 30in /  1015.1hPa ESE 4.3mph /  6.9km/h 6.7mph /  10.8km/h 95% 0in /  0.0mm
19:22 39.6 °F /  4.2 °C 38.3 °F /  3.5 °C 30in /  1015.1hPa ESE 2.5mph /  4.0km/h 6.3mph /  10.1km/h 95% 0in /  0.0mm
19:27 39.4 °F /  4.1 °C 38.1 °F /  3.4 °C 30in /  1015.1hPa ESE 5.8mph /  9.3km/h 7.4mph /  11.9km/h 95% 0in /  0.0mm
19:37 39.2 °F /  4.0 °C 37.9 °F /  3.3 °C 30in /  1015.1hPa ESE 5.8mph /  9.3km/h 6.5mph /  10.5km/h 95% 0in /  0.0mm
19:42 39.2 °F /  4.0 °C 37.9 °F /  3.3 °C 30in /  1015.1hPa ESE 5.8mph /  9.3km/h 6.9mph /  11.1km/h 95% 0in /  0.0mm
19:47 39.2 °F /  4.0 °C 37.9 °F /  3.3 °C 30in /  1015.1hPa ESE 6.5mph /  10.5km/h 8.7mph /  14.0km/h 95% 0in /  0.0mm
19:52 39.4 °F /  4.1 °C 38.1 °F /  3.4 °C 30in /  1016.1hPa ESE 7.4mph /  11.9km/h 8.7mph /  14.0km/h 95% 0in /  0.0mm
19:57 39.4 °F /  4.1 °C 38.1 °F /  3.4 °C 30in /  1016.1hPa ESE 6.5mph /  10.5km/h 7.8mph /  12.6km/h 95% 0in /  0.0mm
20:02 39.4 °F /  4.1 °C 38.1 °F /  3.4 °C 30in /  1016.1hPa ESE 5.6mph /  9.0km/h 7.8mph /  12.6km/h 95% 0in /  0.0mm
20:07 39.4 °F /  4.1 °C 38.1 °F /  3.4 °C 30in /  1015.1hPa ESE 5.6mph /  9.0km/h 8.5mph /  13.7km/h 95% 0in /  0.0mm
20:12 39.4 °F /  4.1 °C 38.1 °F /  3.4 °C 30in /  1015.1hPa East 4.7mph /  7.6km/h 8.5mph /  13.7km/h 95% 0in /  0.0mm
20:17 39.2 °F /  4.0 °C 37.9 °F /  3.3 °C 30in /  1015.1hPa SE 5.6mph /  9.0km/h 6.5mph /  10.5km/h 95% 0in /  0.0mm
20:22 39.4 °F /  4.1 °C 38.1 °F /  3.4 °C 30in /  1015.1hPa SSE 4.9mph /  7.9km/h 8.5mph /  13.7km/h 95% 0in /  0.0mm
20:27 39.4 °F /  4.1 °C 38.1 °F /  3.4 °C 30in /  1015.1hPa ESE 3.1mph /  5.0km/h 8.5mph /  13.7km/h 95% 0in /  0.0mm
20:32 39.4 °F /  4.1 °C 38.1 °F /  3.4 °C 30in /  1015.1hPa SE 6.5mph /  10.5km/h 6.5mph /  10.5km/h 95% 0in /  0.0mm
20:37 39.4 °F /  4.1 °C 38.1 °F /  3.4 °C 30in /  1015.1hPa ESE 3.1mph /  5.0km/h 7.6mph /  12.2km/h 95% 0in /  0.0mm
20:42 39.4 °F /  4.1 °C 38.1 °F /  3.4 °C 30in /  1015.1hPa SE 5.6mph /  9.0km/h 8.1mph /  13.0km/h 95% 0in /  0.0mm
20:47 39.4 °F /  4.1 °C 38.1 °F /  3.4 °C 30in /  1015.1hPa ESE 4mph /  6.4km/h 8.1mph /  13.0km/h 95% 0in /  0.0mm
20:52 39.4 °F /  4.1 °C 38.1 °F /  3.4 °C 30in /  1015.1hPa SE 4.7mph /  7.6km/h 7.8mph /  12.6km/h 95% 0in /  0.0mm
20:57 39.4 °F /  4.1 °C 38.1 °F /  3.4 °C 30in /  1015.1hPa ESE 5.6mph /  9.0km/h 7.8mph /  12.6km/h 95% 0in /  0.0mm
21:02 39.4 °F /  4.1 °C 38.1 °F /  3.4 °C 30in /  1015.1hPa ESE 4mph /  6.4km/h 6.5mph /  10.5km/h 95% 0in /  0.0mm
21:07 39.4 °F /  4.1 °C 38.1 °F /  3.4 °C 30in /  1016.1hPa ESE 3.6mph /  5.8km/h 7.2mph /  11.6km/h 95% 0in /  0.0mm
21:12 39.2 °F /  4.0 °C 37.9 °F /  3.3 °C 30in /  1016.1hPa ESE 4.3mph /  6.9km/h 7.4mph /  11.9km/h 95% 0in /  0.0mm
21:17 39.2 °F /  4.0 °C 37.9 °F /  3.3 °C 30in /  1016.1hPa ESE 7.4mph /  11.9km/h 8.5mph /  13.7km/h 95% 0in /  0.0mm
21:22 39 °F /  3.9 °C 37.8 °F /  3.2 °C 30in /  1016.1hPa ESE 5.6mph /  9.0km/h 8.5mph /  13.7km/h 95% 0in /  0.0mm
21:27 39 °F /  3.9 °C 37.8 °F /  3.2 °C 30in /  1015.1hPa ESE 5.6mph /  9.0km/h 7.4mph /  11.9km/h 95% 0in /  0.0mm
21:32 39 °F /  3.9 °C 37.8 °F /  3.2 °C 30in /  1015.1hPa ESE 7.6mph /  12.2km/h 7.6mph /  12.2km/h 95% 0in /  0.0mm
21:37 39 °F /  3.9 °C 37.8 °F /  3.2 °C 30in /  1015.1hPa ESE 4.9mph /  7.9km/h 7.6mph /  12.2km/h 95% 0in /  0.0mm
21:42 39 °F /  3.9 °C 37.8 °F /  3.2 °C 30in /  1015.1hPa ESE 4.3mph /  6.9km/h 8.1mph /  13.0km/h 95% 0in /  0.0mm
21:47 39 °F /  3.9 °C 37.8 °F /  3.2 °C 30in /  1015.1hPa East 3.1mph /  5.0km/h 8.1mph /  13.0km/h 95% 0in /  0.0mm
21:52 39 °F /  3.9 °C 37.9 °F /  3.3 °C 30in /  1015.1hPa ESE 3.8mph /  6.1km/h 7.6mph /  12.2km/h 96% 0in /  0.0mm
21:57 39 °F /  3.9 °C 37.9 °F /  3.3 °C 30in /  1015.1hPa SSE 4.3mph /  6.9km/h 7.4mph /  11.9km/h 96% 0in /  0.0mm
22:02 39 °F /  3.9 °C 37.9 °F /  3.3 °C 30in /  1015.1hPa ESE 4.3mph /  6.9km/h 6.5mph /  10.5km/h 96% 0in /  0.0mm
22:07 39 °F /  3.9 °C 37.9 °F /  3.3 °C 29.9in /  1014.1hPa East 3.8mph /  6.1km/h 8.7mph /  14.0km/h 96% 0in /  0.0mm
22:12 39 °F /  3.9 °C 37.9 °F /  3.3 °C 29.9in /  1014.1hPa ESE 3.6mph /  5.8km/h 8.7mph /  14.0km/h 96% 0in /  0.0mm
22:17 38.8 °F /  3.8 °C 38.1 °F /  3.4 °C 29.9in /  1014.1hPa SE 7.4mph /  11.9km/h 7.4mph /  11.9km/h 97% 0in /  0.0mm
22:22 38.8 °F /  3.8 °C 38.1 °F /  3.4 °C 29.9in /  1014.1hPa ESE 6.5mph /  10.5km/h 8.1mph /  13.0km/h 97% 0in /  0.0mm
22:27 38.8 °F /  3.8 °C 38.1 °F /  3.4 °C 29.9in /  1014.1hPa ESE 4.9mph /  7.9km/h 8.1mph /  13.0km/h 97% 0in /  0.0mm
22:32 39 °F /  3.9 °C 37.9 °F /  3.3 °C 29.9in /  1014.1hPa ESE 7.6mph /  12.2km/h 9.4mph /  15.1km/h 96% 0in /  0.0mm
22:37 39 °F /  3.9 °C 38.3 °F /  3.5 °C 29.9in /  1014.1hPa SE 4mph /  6.4km/h 9.4mph /  15.1km/h 97% 0in /  0.0mm
22:42 39 °F /  3.9 °C 38.3 °F /  3.5 °C 29.9in /  1014.1hPa East 0.9mph /  1.4km/h 8.5mph /  13.7km/h 97% 0in /  0.0mm
22:47 38.8 °F /  3.8 °C 38.1 °F /  3.4 °C 29.9in /  1014.1hPa East 3.8mph /  6.1km/h 5.6mph /  9.0km/h 97% 0in /  0.0mm
22:52 38.8 °F /  3.8 °C 38.1 °F /  3.4 °C 29.9in /  1014.1hPa East 6mph /  9.7km/h 6.7mph /  10.8km/h 97% 0in /  0.0mm
22:57 39 °F /  3.9 °C 38.3 °F /  3.5 °C 29.9in /  1014.1hPa SE 7.8mph /  12.6km/h 8.5mph /  13.7km/h 97% 0in /  0.0mm
23:02 39 °F /  3.9 °C 38.3 °F /  3.5 °C 29.9in /  1014.1hPa SE 4.9mph /  7.9km/h 8.5mph /  13.7km/h 97% 0in /  0.0mm
23:07 39 °F /  3.9 °C 38.3 °F /  3.5 °C 29.9in /  1014.1hPa SE 4.9mph /  7.9km/h 7.4mph /  11.9km/h 97% 0in /  0.0mm
23:12 39 °F /  3.9 °C 38.3 °F /  3.5 °C 29.9in /  1014.1hPa SE 4.9mph /  7.9km/h 6.3mph /  10.1km/h 97% 0in /  0.0mm
23:17 39 °F /  3.9 °C 38.3 °F /  3.5 °C 29.9in /  1014.1hPa South 4.9mph /  7.9km/h 6.5mph /  10.5km/h 97% 0in /  0.0mm
23:22 39 °F /  3.9 °C 38.3 °F /  3.5 °C 29.9in /  1014.1hPa SE 4mph /  6.4km/h 6.5mph /  10.5km/h 97% 0in /  0.0mm
23:27 39 °F /  3.9 °C 38.3 °F /  3.5 °C 29.9in /  1014.1hPa ESE 4mph /  6.4km/h 5.8mph /  9.3km/h 97% 0in /  0.0mm
23:32 39 °F /  3.9 °C 38.3 °F /  3.5 °C 29.9in /  1014.1hPa SSE 0.9mph /  1.4km/h 4.9mph /  7.9km/h 97% 0in /  0.0mm
23:37 39 °F /  3.9 °C 38.3 °F /  3.5 °C 29.9in /  1014.1hPa SE 0.9mph /  1.4km/h 4.3mph /  6.9km/h 97% 0in /  0.0mm
23:42 39 °F /  3.9 °C 38.3 °F /  3.5 °C 29.9in /  1014.1hPa East 2mph /  3.2km/h 4.7mph /  7.6km/h 97% 0in /  0.0mm
23:47 39 °F /  3.9 °C 38.3 °F /  3.5 °C 29.9in /  1014.1hPa Calm   4.7mph /  7.6km/h 97% 0in /  0.0mm
23:52 39.2 °F /  4.0 °C 38.5 °F /  3.6 °C 29.9in /  1014.1hPa East 2mph /  3.2km/h 4.7mph /  7.6km/h 97% 0in /  0.0mm
23:57 39.2 °F /  4.0 °C 38.7 °F /  3.7 °C 29.9in /  1014.1hPa ESE 2.5mph /  4.0km/h 4.7mph /  7.6km/h 98% 0in /  0.0mm
Données Historique de Météo Turbie

Mise a jour : 22/05/2018 04:24:13
Généré par Cumulus 1.9.4 (1099)